CYYW

Details ICAO CYYW (YYW)
Name ARMSTRONG
Region Canada
Timezone America/Toronto (UTC-4.0)
Plans Departing 2
Arriving 9
Stats Elevation 1,058 ft / 322 m (AMSL)
Location 50.293397° -88.913465°
Runways 2
Magnetic Variation 4.588° W
Sunrise 2018-05-27 09:55:43 UTC / 2018-05-27 05:55:43 Local
Sunset 2018-05-28 01:52:50 UTC / 2018-05-27 21:52:50 Local
Advertisement - Login to hide

Runways

ID Width Length Bearing (true) Bearing (mag) Surface Threshold Offset Overrun Length
12 100 ft / 30 m 3,991 ft / 1,216 m 117.05° 121.64° Asphalt 0 ft / 0 m 0 ft / 0 m
18 100 ft / 30 m 2,940 ft / 896 m 178.75° 183.34° Asphalt 0 ft / 0 m 0 ft / 0 m
30 100 ft / 30 m 3,991 ft / 1,216 m 297.06° 301.65° Asphalt 0 ft / 0 m 0 ft / 0 m
36 100 ft / 30 m 2,940 ft / 896 m 358.75° 3.34° Asphalt 0 ft / 0 m 0 ft / 0 m

Map

Weather


0- 5 10 15 20 25 30 35+ Temperature / ° C

Clouds and Precipitation
Forecast for 2018-05-28 00:00 UTC. Updated 3 hours ago

Ground ~20,000 ft ~40,000 ft Winds

METAR

CYYW 280200Z AUTO 15002KT 9SM BKN130 17/14 A2983 RMK SLP097 DENSITY ALT 1600FT

TAF

Not found

Frequencies

Unicom 122.80 MHz CTAF
Warning: Do not use this data for real-world aviation or navigation. No guarantee of current accuracy is given.